Main page
METAR-TAF:

METAR-TAF

Airports :

Baudette International Airport

Baudette, Minnesota, United States

latitude: 48-43-36N, longitude: 094-36-44W, elevation: 330 m

Current weather observation

The report was made 31 minutes ago, at 06:53 UTC
Wind 7 kt from the South/Southwest
Temperature 7°C
Humidity 39%
Pressure 1009 hPa
Visibility: 16.1 km
Clear sky

METAR: KBDE 220653Z AUTO 21007KT 10SM CLR 07/M06 A2980 RMK AO2 SLP098 T00671061 $

Time: 02:24 (07:24 UTC)


TAF: missing

Weather observations and forecasts of more than 4000 airports (METAR and TAF reports).

The available stations are represented by yellow and red dots on the map.

Hover mouse over dot to see the name of the station.

Then click to see weather observations and forecasts.

To change the map : click on the green buttons with a black cross to zoom in, on the green button with a dash to zoom out, or on the green arrows for adjacent maps.


METAR-TAF: